Time;durP1;ratioP1;P1;durP2;ratioP2;P2;SDS_P1;SDS_P2;PMS_P1;PMS_P2;Temp;Humidity;BMP_temperature;BMP_pressure;BME280_temperature;BME280_humidity;BME280_pressure;Samples;Min_cycle;Max_cycle;Signal;HPM_P1;HPM_P2
2021/12/13 00:01:45;;;;;;;14.18;8.10;;;;;;;;;;4851675;29;20104;-65
2021/12/13 00:04:20;;;;;;;18.65;8.70;;;;;;;;;;4834249;29;21547;-64
2021/12/13 00:07:14;;;;;;;13.27;8.00;;;;;;;;;;4855172;29;20029;-60
2021/12/13 00:17:15;;;;;;;11.98;7.63;;;;;;;;;;4835757;29;20072;-61
2021/12/13 00:19:50;;;;;;;12.35;7.70;;;;;;;;;;4844029;29;20042;-57
2021/12/13 00:22:33;;;;;;;15.02;7.80;;;;;;;;;;4838643;29;20030;-59
2021/12/13 00:25:09;;;;;;;12.68;7.63;;;;;;;;;;4848542;29;20432;-58
2021/12/13 00:27:41;;;;;;;14.05;7.95;;;;;;;;;;4844843;29;20421;-62
2021/12/13 00:30:28;;;;;;;15.60;8.63;;;;;;;;;;4840913;29;20036;-60
2021/12/13 00:33:26;;;;;;;15.32;8.88;;;;;;;;;;4846230;29;20065;-59
2021/12/13 00:35:59;;;;;;;13.38;7.93;;;;;;;;;;4840387;29;20045;-62
2021/12/13 00:38:28;;;;;;;14.65;8.23;;;;;;;;;;4839342;29;20106;-61
2021/12/13 00:41:01;;;;;;;14.35;8.15;;;;;;;;;;4842770;29;20109;-59
2021/12/13 00:43:33;;;;;;;14.38;7.72;;;;;;;;;;4841025;29;20040;-60
2021/12/13 00:46:01;;;;;;;13.48;8.20;;;;;;;;;;4842143;29;20069;-58
2021/12/13 00:48:30;;;;;;;13.27;8.00;;;;;;;;;;4843625;29;20030;-61
2021/12/13 00:51:28;;;;;;;14.35;7.72;;;;;;;;;;4845679;29;20053;-61
2021/12/13 00:54:11;;;;;;;16.73;7.63;;;;;;;;;;4846462;29;20122;-59
2021/12/13 00:57:23;;;;;;;13.95;8.10;;;;;;;;;;4840278;29;20069;-61
2021/12/13 00:59:55;;;;;;;13.23;7.95;;;;;;;;;;4843461;29;20046;-58
2021/12/13 01:02:27;;;;;;;13.55;7.97;;;;;;;;;;4839799;29;20037;-62
2021/12/13 01:04:57;;;;;;;14.68;7.72;;;;;;;;;;4841628;29;20091;-60
2021/12/13 01:07:32;;;;;;;16.38;8.40;;;;;;;;;;4843683;29;20068;-61
2021/12/13 01:10:16;;;;;;;16.33;8.52;;;;;;;;;;4841161;29;20457;-58
2021/12/13 01:12:42;;;;;;;11.85;7.90;;;;;;;;;;4840225;29;20030;-57
2021/12/13 01:15:17;;;;;;;16.55;8.50;;;;;;;;;;4840289;29;20526;-57
2021/12/13 01:18:27;;;;;;;15.55;8.45;;;;;;;;;;4839192;29;20125;-60
2021/12/13 01:24:09;;;;;;;14.68;8.40;;;;;;;;;;4842671;29;20044;-58
2021/12/13 01:26:45;;;;;;;13.40;7.63;;;;;;;;;;4838139;29;20053;-58
2021/12/13 01:29:26;;;;;;;14.45;8.25;;;;;;;;;;4839494;29;20511;-59
2021/12/13 01:32:00;;;;;;;15.98;9.18;;;;;;;;;;4837897;29;20074;-59
2021/12/13 01:34:29;;;;;;;14.38;8.30;;;;;;;;;;4838466;29;20057;-57
2021/12/13 01:37:08;;;;;;;14.32;8.55;;;;;;;;;;4835689;29;20142;-59
2021/12/13 01:39:36;;;;;;;16.55;8.30;;;;;;;;;;4833927;29;20130;-58
2021/12/13 01:42:09;;;;;;;13.27;7.85;;;;;;;;;;4889967;23;20308;-54
2021/12/13 01:44:41;;;;;;;13.90;8.73;;;;;;;;;;4867324;29;20105;-52
2021/12/13 01:47:17;;;;;;;14.93;8.35;;;;;;;;;;4867142;29;20044;-56
2021/12/13 01:49:48;;;;;;;15.55;8.57;;;;;;;;;;4862425;29;20162;-56
2021/12/13 01:52:24;;;;;;;14.65;8.45;;;;;;;;;;4865778;29;20088;-55
2021/12/13 01:54:50;;;;;;;14.82;8.55;;;;;;;;;;4864527;29;20037;-51
2021/12/13 01:57:24;;;;;;;13.90;8.73;;;;;;;;;;4863763;29;20462;-53
2021/12/13 02:00:08;;;;;;;17.60;9.02;;;;;;;;;;5006057;23;21219;-60
2021/12/13 02:02:39;;;;;;;13.75;8.57;;;;;;;;;;4885815;29;20068;-59
2021/12/13 02:05:07;;;;;;;18.85;9.52;;;;;;;;;;4886878;29;20032;-58
2021/12/13 02:07:40;;;;;;;15.48;8.80;;;;;;;;;;4888117;29;20037;-57
2021/12/13 02:10:19;;;;;;;16.25;8.88;;;;;;;;;;4887812;29;20024;-59
2021/12/13 02:12:46;;;;;;;13.77;8.75;;;;;;;;;;4889603;29;20036;-59
2021/12/13 02:18:00;;;;;;;16.63;9.05;;;;;;;;;;4890756;29;20050;-57
2021/12/13 02:20:34;;;;;;;16.10;9.52;;;;;;;;;;4885833;29;20033;-60
2021/12/13 02:23:01;;;;;;;14.65;9.02;;;;;;;;;;4887052;29;20051;-60
2021/12/13 02:25:32;;;;;;;18.40;9.27;;;;;;;;;;4888491;29;20035;-59
2021/12/13 02:27:58;;;;;;;17.77;9.15;;;;;;;;;;4889867;29;20041;-59
2021/12/13 02:30:44;;;;;;;16.15;9.45;;;;;;;;;;4886803;29;20141;-58
2021/12/13 02:33:14;;;;;;;13.77;8.07;;;;;;;;;;4886399;29;20035;-58
2021/12/13 02:35:44;;;;;;;15.63;9.00;;;;;;;;;;4885286;29;20035;-58
2021/12/13 02:38:11;;;;;;;20.90;9.30;;;;;;;;;;4886243;29;20045;-57
2021/12/13 02:40:37;;;;;;;14.05;8.85;;;;;;;;;;4887708;29;20028;-57
2021/12/13 02:43:06;;;;;;;16.02;8.82;;;;;;;;;;4885542;29;20036;-58
2021/12/13 02:45:43;;;;;;;17.98;9.50;;;;;;;;;;4885129;29;20028;-53
2021/12/13 02:48:29;;;;;;;14.55;9.07;;;;;;;;;;4886570;29;20084;-57
2021/12/13 02:51:04;;;;;;;16.42;8.48;;;;;;;;;;4885921;29;20051;-59
2021/12/13 02:53:46;;;;;;;14.95;8.70;;;;;;;;;;4886827;29;20044;-58
2021/12/13 02:56:13;;;;;;;16.17;9.52;;;;;;;;;;4886419;29;20056;-56
2021/12/13 02:58:40;;;;;;;18.83;9.35;;;;;;;;;;4887136;29;20036;-58
2021/12/13 03:01:22;;;;;;;15.88;8.73;;;;;;;;;;4887318;29;20123;-53
2021/12/13 03:03:53;;;;;;;16.42;9.30;;;;;;;;;;4886218;29;20066;-61
2021/12/13 03:06:23;;;;;;;14.13;8.52;;;;;;;;;;4888995;29;20045;-61
2021/12/13 03:08:59;;;;;;;17.92;8.85;;;;;;;;;;4887951;29;20374;-61
2021/12/13 03:11:31;;;;;;;15.82;8.55;;;;;;;;;;4888903;29;20039;-60
2021/12/13 03:14:02;;;;;;;14.65;8.55;;;;;;;;;;4883181;29;20025;-61
2021/12/13 03:16:51;;;;;;;14.35;8.23;;;;;;;;;;4888393;29;20043;-60
2021/12/13 03:19:35;;;;;;;12.57;8.07;;;;;;;;;;4885745;29;20534;-61
2021/12/13 03:22:23;;;;;;;15.35;8.85;;;;;;;;;;4885607;29;20040;-61
2021/12/13 03:25:05;;;;;;;15.60;8.35;;;;;;;;;;4883972;29;20545;-60
2021/12/13 03:27:55;;;;;;;15.73;8.87;;;;;;;;;;4886337;29;20036;-59
2021/12/13 03:30:28;;;;;;;14.85;8.57;;;;;;;;;;4885333;29;20070;-59
2021/12/13 03:33:02;;;;;;;13.80;9.23;;;;;;;;;;4884832;29;20040;-61
2021/12/13 03:35:45;;;;;;;15.88;8.90;;;;;;;;;;4887249;29;20493;-61
2021/12/13 03:38:26;;;;;;;14.55;7.93;;;;;;;;;;4887467;29;20698;-61
2021/12/13 03:40:56;;;;;;;14.75;9.40;;;;;;;;;;4886091;29;20036;-61
2021/12/13 03:43:43;;;;;;;12.43;8.13;;;;;;;;;;4885917;29;20056;-61
2021/12/13 03:46:12;;;;;;;12.93;7.55;;;;;;;;;;4886868;29;20028;-60
2021/12/13 03:48:40;;;;;;;14.32;8.35;;;;;;;;;;4886841;29;20025;-60
2021/12/13 03:51:09;;;;;;;14.55;8.40;;;;;;;;;;4882802;29;20071;-62
2021/12/13 03:53:36;;;;;;;13.02;8.98;;;;;;;;;;4886589;29;20029;-62
2021/12/13 03:56:10;;;;;;;13.93;8.15;;;;;;;;;;4887576;29;20051;-62
2021/12/13 03:58:44;;;;;;;15.20;8.38;;;;;;;;;;4893161;29;20099;-61
2021/12/13 04:01:17;;;;;;;16.55;9.35;;;;;;;;;;4887709;29;20046;-61
2021/12/13 04:03:43;;;;;;;14.50;8.85;;;;;;;;;;4891112;29;20048;-57
2021/12/13 04:06:12;;;;;;;15.93;9.15;;;;;;;;;;4888624;29;20032;-60
2021/12/13 04:08:39;;;;;;;14.30;8.40;;;;;;;;;;4887986;29;20124;-61
2021/12/13 04:11:09;;;;;;;12.07;8.40;;;;;;;;;;4888440;29;20037;-60
2021/12/13 04:13:43;;;;;;;13.02;8.43;;;;;;;;;;4889942;29;20127;-62
2021/12/13 04:16:28;;;;;;;13.15;8.10;;;;;;;;;;4889853;29;20186;-61
2021/12/13 04:19:08;;;;;;;16.95;9.15;;;;;;;;;;4889591;29;20040;-61
2021/12/13 04:21:51;;;;;;;13.70;8.10;;;;;;;;;;4890113;29;20032;-62
2021/12/13 04:24:32;;;;;;;15.88;8.30;;;;;;;;;;4884957;29;20286;-59
2021/12/13 04:27:02;;;;;;;14.73;8.57;;;;;;;;;;4888633;29;20033;-60
2021/12/13 04:29:37;;;;;;;11.18;7.80;;;;;;;;;;4886046;29;20032;-61
2021/12/13 04:32:16;;;;;;;15.55;8.60;;;;;;;;;;4892262;29;20068;-62
2021/12/13 04:34:42;;;;;;;13.65;8.32;;;;;;;;;;4886860;29;20055;-62
2021/12/13 04:37:16;;;;;;;12.50;8.10;;;;;;;;;;4890238;29;20093;-61
2021/12/13 04:39:44;;;;;;;13.18;8.07;;;;;;;;;;4886345;29;20040;-60
2021/12/13 04:42:15;;;;;;;13.52;7.57;;;;;;;;;;4890833;29;20036;-61
2021/12/13 04:45:01;;;;;;;13.63;8.23;;;;;;;;;;4887632;29;20040;-61
2021/12/13 04:47:47;;;;;;;12.73;8.20;;;;;;;;;;4889564;29;20407;-60
2021/12/13 04:50:21;;;;;;;15.25;7.60;;;;;;;;;;4890304;29;20386;-61
2021/12/13 04:52:47;;;;;;;17.42;8.38;;;;;;;;;;4891559;29;20080;-60
2021/12/13 04:55:22;;;;;;;15.57;8.27;;;;;;;;;;4890171;29;20036;-60
2021/12/13 04:57:50;;;;;;;14.15;8.13;;;;;;;;;;4888016;29;20095;-61
2021/12/13 05:00:18;;;;;;;12.65;8.00;;;;;;;;;;4887154;29;20112;-60
2021/12/13 05:02:56;;;;;;;15.05;7.95;;;;;;;;;;4889664;29;20057;-61
2021/12/13 05:05:21;;;;;;;14.30;8.63;;;;;;;;;;4889937;29;20153;-61
2021/12/13 05:07:49;;;;;;;11.43;7.45;;;;;;;;;;4888428;29;20032;-61
2021/12/13 05:10:15;;;;;;;17.05;8.05;;;;;;;;;;4888853;29;20051;-61
2021/12/13 05:12:41;;;;;;;16.08;8.90;;;;;;;;;;4888020;29;21355;-60
2021/12/13 05:15:12;;;;;;;16.50;9.13;;;;;;;;;;4888883;29;20473;-61
2021/12/13 05:17:45;;;;;;;13.13;7.63;;;;;;;;;;4882301;29;20041;-61
2021/12/13 05:20:22;;;;;;;17.98;8.88;;;;;;;;;;4886779;29;20032;-61
2021/12/13 05:23:12;;;;;;;17.85;8.82;;;;;;;;;;4890080;29;20032;-61
2021/12/13 05:25:49;;;;;;;22.23;9.50;;;;;;;;;;4887303;29;20041;-61
2021/12/13 05:28:23;;;;;;;16.42;8.80;;;;;;;;;;4883884;29;20032;-57
2021/12/13 05:31:00;;;;;;;23.98;9.15;;;;;;;;;;4887608;29;20033;-53
2021/12/13 05:33:29;;;;;;;20.73;9.48;;;;;;;;;;4887048;29;20044;-57
2021/12/13 05:36:01;;;;;;;25.08;9.18;;;;;;;;;;4888314;29;20048;-55
2021/12/13 05:38:31;;;;;;;16.10;9.52;;;;;;;;;;4889391;29;20036;-55
2021/12/13 05:41:00;;;;;;;18.35;8.93;;;;;;;;;;4886857;29;20039;-57
2021/12/13 05:43:33;;;;;;;21.17;10.50;;;;;;;;;;4887569;29;20064;-55
2021/12/13 05:46:03;;;;;;;16.38;10.10;;;;;;;;;;4887112;29;20048;-54
2021/12/13 05:48:34;;;;;;;18.85;9.63;;;;;;;;;;4886893;29;20063;-55
2021/12/13 05:51:05;;;;;;;15.93;10.00;;;;;;;;;;4885534;29;20044;-50
2021/12/13 05:53:36;;;;;;;16.95;10.25;;;;;;;;;;4885611;29;20028;-55
2021/12/13 05:56:06;;;;;;;18.95;10.20;;;;;;;;;;4888459;29;20037;-57
2021/12/13 05:58:43;;;;;;;17.15;9.40;;;;;;;;;;4890015;29;20043;-55
2021/12/13 06:01:19;;;;;;;14.77;10.00;;;;;;;;;;4887683;29;20390;-58
2021/12/13 06:04:07;;;;;;;14.18;9.23;;;;;;;;;;4885521;29;20088;-58
2021/12/13 06:06:51;;;;;;;14.95;8.70;;;;;;;;;;4890202;29;20045;-54
2021/12/13 06:09:51;;;;;;;14.70;8.80;;;;;;;;;;4887224;29;20040;-54
2021/12/13 06:12:31;;;;;;;14.07;7.68;;;;;;;;;;4887939;29;20043;-56
2021/12/13 06:15:15;;;;;;;16.65;8.27;;;;;;;;;;4885138;29;20099;-57
2021/12/13 06:17:44;;;;;;;16.05;9.20;;;;;;;;;;4889131;29;20484;-53
2021/12/13 06:20:13;;;;;;;16.85;8.50;;;;;;;;;;4884984;29;20111;-56
2021/12/13 06:22:39;;;;;;;17.02;9.20;;;;;;;;;;4889116;29;20187;-54
2021/12/13 06:25:12;;;;;;;15.90;9.38;;;;;;;;;;4883588;29;20127;-55
2021/12/13 06:27:45;;;;;;;24.33;9.75;;;;;;;;;;4887455;29;20037;-57
2021/12/13 06:30:19;;;;;;;19.17;9.07;;;;;;;;;;4887076;29;20370;-54
2021/12/13 06:33:06;;;;;;;19.00;9.57;;;;;;;;;;4888092;29;20321;-57
2021/12/13 06:35:37;;;;;;;16.15;8.75;;;;;;;;;;4890665;29;20111;-54
2021/12/13 06:38:34;;;;;;;17.13;9.23;;;;;;;;;;4883729;29;20496;-54
2021/12/13 06:41:10;;;;;;;23.05;9.13;;;;;;;;;;4880929;29;21388;-57
2021/12/13 06:43:44;;;;;;;15.30;8.88;;;;;;;;;;4886550;29;20398;-54
2021/12/13 06:46:24;;;;;;;17.83;8.75;;;;;;;;;;4886289;29;20036;-56
2021/12/13 06:49:13;;;;;;;17.58;8.73;;;;;;;;;;4885064;29;20033;-57
2021/12/13 06:51:48;;;;;;;14.35;8.50;;;;;;;;;;4883606;29;20519;-55
2021/12/13 06:54:19;;;;;;;25.83;11.85;;;;;;;;;;4884235;29;20068;-56
2021/12/13 06:56:52;;;;;;;27.17;9.27;;;;;;;;;;4885355;29;20037;-57
2021/12/13 06:59:18;;;;;;;19.63;8.30;;;;;;;;;;4885906;29;20045;-55
2021/12/13 07:01:56;;;;;;;19.92;8.35;;;;;;;;;;4887277;29;20438;-54
2021/12/13 07:04:22;;;;;;;16.77;8.00;;;;;;;;;;4884708;29;20442;-56
2021/12/13 07:06:47;;;;;;;16.98;8.15;;;;;;;;;;4884049;29;20033;-55
2021/12/13 07:09:23;;;;;;;14.02;8.00;;;;;;;;;;4887890;29;20084;-50
2021/12/13 07:11:54;;;;;;;13.80;7.88;;;;;;;;;;4882799;29;21172;-51
2021/12/13 07:14:30;;;;;;;16.70;8.35;;;;;;;;;;4884867;29;20111;-51
2021/12/13 07:16:56;;;;;;;13.77;7.40;;;;;;;;;;4887468;29;20463;-51
2021/12/13 07:19:24;;;;;;;16.90;8.18;;;;;;;;;;4887377;29;20040;-56
2021/12/13 07:21:59;;;;;;;15.00;9.15;;;;;;;;;;4886951;29;20079;-55
2021/12/13 07:24:42;;;;;;;15.00;8.07;;;;;;;;;;4886272;29;20036;-56
2021/12/13 07:27:29;;;;;;;18.00;8.63;;;;;;;;;;4889000;29;20078;-51
2021/12/13 07:29:59;;;;;;;17.90;8.75;;;;;;;;;;4888248;29;20027;-54
2021/12/13 07:32:33;;;;;;;14.75;8.48;;;;;;;;;;4883773;29;20377;-58
2021/12/13 07:35:12;;;;;;;17.60;8.77;;;;;;;;;;4885819;29;20120;-50
2021/12/13 07:37:53;;;;;;;15.88;8.27;;;;;;;;;;4885222;29;20044;-54
2021/12/13 07:40:27;;;;;;;15.45;8.90;;;;;;;;;;4887499;29;20560;-53
2021/12/13 07:43:01;;;;;;;19.73;8.88;;;;;;;;;;4886393;29;20770;-51
2021/12/13 07:45:46;;;;;;;11.90;7.90;;;;;;;;;;4886884;29;20112;-51
2021/12/13 07:48:34;;;;;;;14.43;7.80;;;;;;;;;;4884275;29;20041;-54
2021/12/13 07:51:08;;;;;;;15.05;8.52;;;;;;;;;;4883418;29;20118;-56
2021/12/13 07:53:45;;;;;;;15.13;8.25;;;;;;;;;;4885658;29;20552;-56
2021/12/13 07:56:18;;;;;;;13.63;8.43;;;;;;;;;;4886132;29;20253;-52
2021/12/13 07:58:48;;;;;;;11.82;8.32;;;;;;;;;;4887065;29;20464;-55
2021/12/13 08:01:24;;;;;;;13.65;8.32;;;;;;;;;;4885851;29;20032;-57
2021/12/13 08:03:58;;;;;;;12.95;8.25;;;;;;;;;;4885119;29;20028;-56
2021/12/13 08:06:34;;;;;;;;;;;;;;;;;;4884782;29;20551;-55
2021/12/13 08:09:04;;;;;;;13.57;7.45;;;;;;;;;;4885202;29;19982;-58
2021/12/13 08:11:42;;;;;;;15.93;8.68;;;;;;;;;;4883093;29;20095;-54
2021/12/13 08:14:09;;;;;;;18.38;8.05;;;;;;;;;;4888203;29;20092;-56
2021/12/13 08:16:43;;;;;;;16.08;8.40;;;;;;;;;;4886131;29;20123;-56
2021/12/13 08:19:24;;;;;;;13.80;8.00;;;;;;;;;;4882995;29;20497;-57
2021/12/13 08:21:59;;;;;;;14.65;8.68;;;;;;;;;;4885654;29;20036;-55
2021/12/13 08:24:30;;;;;;;15.43;8.18;;;;;;;;;;4877456;29;20382;-56
2021/12/13 08:27:00;;;;;;;13.65;8.48;;;;;;;;;;4882974;29;20036;-55
2021/12/13 08:29:31;;;;;;;15.55;8.25;;;;;;;;;;4884435;29;20044;-52
2021/12/13 08:32:00;;;;;;;13.70;8.20;;;;;;;;;;4885639;29;20025;-53
2021/12/13 08:34:30;;;;;;;14.00;8.45;;;;;;;;;;4886581;29;20037;-55
2021/12/13 08:36:56;;;;;;;16.67;8.60;;;;;;;;;;4886807;29;20041;-56
2021/12/13 08:39:26;;;;;;;13.95;8.65;;;;;;;;;;4885939;29;20041;-55
2021/12/13 08:41:58;;;;;;;15.70;8.50;;;;;;;;;;4887754;29;20036;-52
2021/12/13 08:44:35;;;;;;;12.77;7.95;;;;;;;;;;4886341;29;20039;-56
2021/12/13 08:47:03;;;;;;;14.57;8.30;;;;;;;;;;4887858;29;20076;-54
2021/12/13 08:49:41;;;;;;;13.48;8.48;;;;;;;;;;4889861;29;20110;-52
2021/12/13 08:52:20;;;;;;;12.50;7.95;;;;;;;;;;4888714;29;20032;-56
2021/12/13 08:55:00;;;;;;;11.95;7.63;;;;;;;;;;4889317;29;20486;-53
2021/12/13 08:57:35;;;;;;;11.52;7.38;;;;;;;;;;4885207;29;20045;-53
2021/12/13 09:00:14;;;;;;;10.82;7.32;;;;;;;;;;4889792;29;20028;-52
2021/12/13 09:02:45;;;;;;;14.30;8.07;;;;;;;;;;4886405;29;20032;-57
2021/12/13 09:05:15;;;;;;;14.15;7.93;;;;;;;;;;4887918;29;20056;-51
2021/12/13 09:08:22;;;;;;;13.35;7.85;;;;;;;;;;4887788;29;20548;-50
2021/12/13 09:10:56;;;;;;;13.60;7.07;;;;;;;;;;4886995;29;20116;-57
2021/12/13 09:13:53;;;;;;;12.38;7.88;;;;;;;;;;4889859;29;20100;-49
2021/12/13 09:16:39;;;;;;;14.48;7.13;;;;;;;;;;4887735;29;20025;-57
2021/12/13 09:19:08;;;;;;;13.00;7.88;;;;;;;;;;4887251;29;20045;-57
2021/12/13 09:21:48;;;;;;;12.55;7.28;;;;;;;;;;4889271;29;20036;-55
2021/12/13 09:24:23;;;;;;;12.13;7.72;;;;;;;;;;4888713;29;20032;-58
2021/12/13 09:26:49;;;;;;;11.60;7.32;;;;;;;;;;4888564;29;20028;-57
2021/12/13 09:29:17;;;;;;;13.82;7.95;;;;;;;;;;4880035;29;20040;-56
2021/12/13 09:31:43;;;;;;;15.05;7.75;;;;;;;;;;4889579;29;20038;-55
2021/12/13 09:34:14;;;;;;;13.05;7.53;;;;;;;;;;4887851;29;20021;-53
2021/12/13 09:36:42;;;;;;;15.45;8.75;;;;;;;;;;4879242;29;20088;-50
2021/12/13 09:39:18;;;;;;;16.27;8.40;;;;;;;;;;4885560;29;20733;-52
2021/12/13 09:42:00;;;;;;;13.73;8.18;;;;;;;;;;4884424;29;20033;-55
2021/12/13 09:44:32;;;;;;;17.40;8.63;;;;;;;;;;4886666;29;20037;-52
2021/12/13 09:47:10;;;;;;;19.95;9.00;;;;;;;;;;4887046;29;20036;-53
2021/12/13 09:49:59;;;;;;;17.77;8.60;;;;;;;;;;4887044;29;20053;-52
2021/12/13 09:52:30;;;;;;;14.90;8.98;;;;;;;;;;4885216;29;20111;-56
2021/12/13 09:55:01;;;;;;;17.67;8.82;;;;;;;;;;4887711;29;20036;-54
2021/12/13 09:57:50;;;;;;;16.10;8.82;;;;;;;;;;4887267;29;20036;-56
2021/12/13 10:00:26;;;;;;;20.30;8.88;;;;;;;;;;4880473;29;20111;-56
2021/12/13 10:02:57;;;;;;;14.48;8.15;;;;;;;;;;4882717;29;20068;-54
2021/12/13 10:05:34;;;;;;;15.07;8.13;;;;;;;;;;4887633;29;20021;-55
2021/12/13 10:08:07;;;;;;;14.38;8.25;;;;;;;;;;4884694;29;20643;-54
2021/12/13 10:10:41;;;;;;;15.70;9.38;;;;;;;;;;4882232;29;20385;-57
2021/12/13 10:13:16;;;;;;;14.70;8.77;;;;;;;;;;4885473;29;20041;-57
2021/12/13 10:15:47;;;;;;;12.00;7.97;;;;;;;;;;4887619;29;20025;-57
2021/12/13 10:18:23;;;;;;;13.27;8.32;;;;;;;;;;4885433;29;20414;-58
2021/12/13 10:20:56;;;;;;;16.48;8.60;;;;;;;;;;4886452;29;20037;-55
2021/12/13 10:23:27;;;;;;;12.18;8.00;;;;;;;;;;4888397;29;20024;-56
2021/12/13 10:25:57;;;;;;;11.90;7.97;;;;;;;;;;4891249;29;20052;-55
2021/12/13 10:28:30;;;;;;;13.00;7.43;;;;;;;;;;4888762;29;20048;-55
2021/12/13 10:31:07;;;;;;;11.93;7.60;;;;;;;;;;4891186;29;20457;-51
2021/12/13 10:33:35;;;;;;;12.20;7.78;;;;;;;;;;4889132;29;20071;-51
2021/12/13 10:36:02;;;;;;;18.02;8.50;;;;;;;;;;4883039;29;20029;-55
2021/12/13 10:38:32;;;;;;;13.57;8.73;;;;;;;;;;4887606;29;20107;-56
2021/12/13 10:41:21;;;;;;;18.15;9.57;;;;;;;;;;4886038;29;20041;-53
2021/12/13 10:43:51;;;;;;;19.40;10.68;;;;;;;;;;4887052;29;20525;-57
2021/12/13 10:46:21;;;;;;;18.83;11.07;;;;;;;;;;4885460;29;20035;-56
2021/12/13 10:48:52;;;;;;;18.17;11.48;;;;;;;;;;4885869;29;20068;-56
2021/12/13 10:51:29;;;;;;;21.88;9.68;;;;;;;;;;4886729;29;20569;-57
2021/12/13 10:53:58;;;;;;;19.15;9.02;;;;;;;;;;4884248;29;20051;-55
2021/12/13 10:56:32;;;;;;;15.70;7.95;;;;;;;;;;4882264;29;20044;-56
2021/12/13 10:59:01;;;;;;;14.30;8.68;;;;;;;;;;4884202;29;20043;-56
2021/12/13 11:01:33;;;;;;;10.85;8.25;;;;;;;;;;4884949;29;20504;-54
2021/12/13 11:04:02;;;;;;;13.88;8.88;;;;;;;;;;4883556;29;20032;-56
2021/12/13 11:06:27;;;;;;;13.60;9.10;;;;;;;;;;4887610;29;20115;-56
2021/12/13 11:08:53;;;;;;;16.00;8.35;;;;;;;;;;4879028;29;20111;-55
2021/12/13 11:11:30;;;;;;;14.57;8.57;;;;;;;;;;4883701;29;20040;-54
2021/12/13 11:14:00;;;;;;;14.13;8.90;;;;;;;;;;4886113;29;20172;-54
2021/12/13 11:16:48;;;;;;;15.73;8.98;;;;;;;;;;4885898;29;20037;-53
2021/12/13 11:19:18;;;;;;;15.00;9.07;;;;;;;;;;4883370;29;20519;-57
2021/12/13 11:21:47;;;;;;;22.05;10.07;;;;;;;;;;4884683;29;20037;-57
2021/12/13 11:24:21;;;;;;;18.90;10.13;;;;;;;;;;4888715;29;20063;-53
2021/12/13 11:26:50;;;;;;;18.38;10.35;;;;;;;;;;4884809;29;20036;-55
2021/12/13 11:29:15;;;;;;;17.02;10.13;;;;;;;;;;4885510;29;20418;-55
2021/12/13 11:32:28;;;;;;;15.95;10.55;;;;;;;;;;4886960;29;20059;-56
2021/12/13 11:35:15;;;;;;;29.77;11.23;;;;;;;;;;4887676;29;20028;-56
2021/12/13 11:37:59;;;;;;;16.83;9.93;;;;;;;;;;4881964;29;20033;-56
2021/12/13 11:40:46;;;;;;;17.20;10.15;;;;;;;;;;4885456;29;20056;-56
2021/12/13 11:43:40;;;;;;;17.63;9.80;;;;;;;;;;4883419;29;20032;-56
2021/12/13 11:46:33;;;;;;;20.00;11.27;;;;;;;;;;4885450;29;20036;-56
2021/12/13 11:49:05;;;;;;;;;;;;;;;;;;4887184;29;20409;-53
2021/12/13 11:52:07;;;;;;;17.05;10.63;;;;;;;;;;4885404;29;20314;-56
2021/12/13 11:54:48;;;;;;;20.00;10.88;;;;;;;;;;4887423;29;20025;-54
2021/12/13 11:58:17;;;;;;;17.52;9.90;;;;;;;;;;4883878;29;20070;-56
2021/12/13 12:01:18;;;;;;;14.75;9.77;;;;;;;;;;4876524;29;20047;-55
2021/12/13 12:04:21;;;;;;;15.65;10.02;;;;;;;;;;4868992;29;20052;-56
2021/12/13 12:07:05;;;;;;;17.95;10.10;;;;;;;;;;4884614;29;20489;-57
2021/12/13 12:09:49;;;;;;;20.60;10.48;;;;;;;;;;4883918;29;20454;-50
2021/12/13 12:12:36;;;;;;;14.60;8.70;;;;;;;;;;4885547;29;20037;-57
2021/12/13 12:15:03;;;;;;;17.60;9.82;;;;;;;;;;4884710;29;20492;-54
2021/12/13 12:17:30;;;;;;;15.98;10.05;;;;;;;;;;4888703;29;20044;-55
2021/12/13 12:19:56;;;;;;;20.85;11.50;;;;;;;;;;4889445;29;20430;-54
2021/12/13 12:22:26;;;;;;;16.77;9.40;;;;;;;;;;4887835;29;20031;-54
2021/12/13 12:24:55;;;;;;;16.40;10.27;;;;;;;;;;4885994;29;20025;-57
2021/12/13 12:27:27;;;;;;;16.77;9.80;;;;;;;;;;4886745;29;20033;-55
2021/12/13 12:29:56;;;;;;;16.45;9.85;;;;;;;;;;4884095;29;20024;-56
2021/12/13 12:32:30;;;;;;;16.55;9.43;;;;;;;;;;4888041;29;20041;-55
2021/12/13 12:34:55;;;;;;;15.52;9.57;;;;;;;;;;4882275;29;20053;-57
2021/12/13 12:37:27;;;;;;;18.63;9.98;;;;;;;;;;4884366;29;20112;-58
2021/12/13 12:40:36;;;;;;;16.95;10.02;;;;;;;;;;4878331;29;20086;-57
2021/12/13 12:43:07;;;;;;;16.88;9.52;;;;;;;;;;4883313;29;20067;-57
2021/12/13 12:45:46;;;;;;;18.00;9.55;;;;;;;;;;4885463;29;20609;-50
2021/12/13 12:48:25;;;;;;;14.43;9.10;;;;;;;;;;4884752;29;20044;-55
2021/12/13 12:50:59;;;;;;;16.05;9.07;;;;;;;;;;4890239;29;20032;-56
2021/12/13 12:53:37;;;;;;;16.33;9.02;;;;;;;;;;4882080;29;20580;-55
2021/12/13 12:56:08;;;;;;;19.15;9.30;;;;;;;;;;4882001;29;20569;-54
2021/12/13 12:58:59;;;;;;;22.08;9.90;;;;;;;;;;4887355;29;20453;-57
2021/12/13 13:01:39;;;;;;;20.23;9.18;;;;;;;;;;4885786;29;20040;-55
2021/12/13 13:04:09;;;;;;;15.13;8.80;;;;;;;;;;4885840;29;20390;-54
2021/12/13 13:06:35;;;;;;;25.23;9.38;;;;;;;;;;4883833;29;20020;-55
2021/12/13 13:09:08;;;;;;;24.00;11.25;;;;;;;;;;4882465;29;20084;-56
2021/12/13 13:11:35;;;;;;;22.65;8.63;;;;;;;;;;4885719;29;20517;-56
2021/12/13 13:14:11;;;;;;;17.00;8.48;;;;;;;;;;4884145;29;20067;-51
2021/12/13 13:16:42;;;;;;;21.42;9.25;;;;;;;;;;4882976;29;20171;-55
2021/12/13 13:19:20;;;;;;;14.98;9.13;;;;;;;;;;4889426;29;20033;-55
2021/12/13 13:21:46;;;;;;;13.43;8.82;;;;;;;;;;4883371;29;20039;-57
2021/12/13 13:24:12;;;;;;;17.48;9.20;;;;;;;;;;4889108;29;20501;-58
2021/12/13 13:26:41;;;;;;;12.38;8.68;;;;;;;;;;4881698;29;20830;-56
2021/12/13 13:29:11;;;;;;;14.50;9.02;;;;;;;;;;4881058;29;20382;-55
2021/12/13 13:31:59;;;;;;;15.15;9.63;;;;;;;;;;4883624;29;21306;-56
2021/12/13 13:34:38;;;;;;;17.70;9.45;;;;;;;;;;4879707;29;20035;-58
2021/12/13 13:37:17;;;;;;;14.40;8.70;;;;;;;;;;4882417;29;20044;-57
2021/12/13 13:39:48;;;;;;;12.20;7.88;;;;;;;;;;4882716;29;20104;-57
2021/12/13 13:42:13;;;;;;;19.10;10.63;;;;;;;;;;4884892;29;20039;-55
2021/12/13 13:44:49;;;;;;;18.98;10.48;;;;;;;;;;4880941;29;20039;-56
2021/12/13 13:47:27;;;;;;;17.10;10.27;;;;;;;;;;4885919;29;20071;-53
2021/12/13 13:49:53;;;;;;;19.45;10.02;;;;;;;;;;4884099;29;20032;-55
2021/12/13 13:52:28;;;;;;;16.15;10.65;;;;;;;;;;4887928;29;20139;-56
2021/12/13 13:55:01;;;;;;;19.17;11.15;;;;;;;;;;4882569;29;20124;-56
2021/12/13 13:57:30;;;;;;;16.90;10.77;;;;;;;;;;4888865;29;20036;-55
2021/12/13 13:59:57;;;;;;;22.98;10.85;;;;;;;;;;4882492;29;20068;-55
2021/12/13 14:02:34;;;;;;;17.67;10.38;;;;;;;;;;4884392;29;21138;-57
2021/12/13 14:05:06;;;;;;;19.85;10.45;;;;;;;;;;4885245;29;20037;-56
2021/12/13 14:07:33;;;;;;;15.98;10.00;;;;;;;;;;4884669;29;20115;-54
2021/12/13 14:10:23;;;;;;;16.65;9.85;;;;;;;;;;4887126;29;20092;-54
2021/12/13 14:12:55;;;;;;;16.77;9.45;;;;;;;;;;4883491;29;20036;-57
2021/12/13 14:15:23;;;;;;;15.43;9.15;;;;;;;;;;4887791;29;20092;-55
2021/12/13 14:17:52;;;;;;;16.95;8.43;;;;;;;;;;4882794;29;20374;-56
2021/12/13 14:20:26;;;;;;;20.67;11.02;;;;;;;;;;4881952;29;20067;-56
2021/12/13 14:23:12;;;;;;;23.92;12.13;;;;;;;;;;4882418;29;20117;-54
2021/12/13 14:25:46;;;;;;;15.23;9.38;;;;;;;;;;4883668;29;20480;-56
2021/12/13 14:28:19;;;;;;;17.90;10.52;;;;;;;;;;4879475;29;20041;-57
2021/12/13 14:30:50;;;;;;;18.27;10.13;;;;;;;;;;4883025;29;20347;-55
2021/12/13 14:33:27;;;;;;;16.08;9.52;;;;;;;;;;4884601;29;20149;-56
2021/12/13 14:36:02;;;;;;;17.83;9.73;;;;;;;;;;4885319;29;20064;-56
2021/12/13 14:38:30;;;;;;;19.10;9.80;;;;;;;;;;4885903;29;20413;-57
2021/12/13 14:40:58;;;;;;;19.02;10.60;;;;;;;;;;4884527;29;20040;-56
2021/12/13 14:43:30;;;;;;;15.73;9.00;;;;;;;;;;4887416;29;20039;-52
2021/12/13 14:45:57;;;;;;;18.70;8.70;;;;;;;;;;4882271;29;20119;-56
2021/12/13 14:48:28;;;;;;;16.92;9.13;;;;;;;;;;4885429;29;20439;-54
2021/12/13 14:50:57;;;;;;;20.70;9.57;;;;;;;;;;4882148;29;20041;-57
2021/12/13 14:53:26;;;;;;;17.35;8.57;;;;;;;;;;4886219;29;20056;-56
2021/12/13 14:55:53;;;;;;;19.63;8.82;;;;;;;;;;4882751;29;20397;-56
2021/12/13 14:58:30;;;;;;;16.30;9.88;;;;;;;;;;4883721;29;20627;-56
2021/12/13 15:01:00;;;;;;;15.75;10.23;;;;;;;;;;4884507;29;20115;-56
2021/12/13 15:03:28;;;;;;;19.65;9.50;;;;;;;;;;4884093;29;20544;-55
2021/12/13 15:05:59;;;;;;;16.08;9.35;;;;;;;;;;4881344;29;20028;-55
2021/12/13 15:08:26;;;;;;;14.77;8.95;;;;;;;;;;4883277;29;20036;-54
2021/12/13 15:11:06;;;;;;;12.65;8.57;;;;;;;;;;4880976;29;20048;-54
2021/12/13 15:13:32;;;;;;;12.77;8.68;;;;;;;;;;4882477;29;20430;-54
2021/12/13 15:16:05;;;;;;;14.80;8.52;;;;;;;;;;4883939;29;20044;-57
2021/12/13 15:18:33;;;;;;;13.65;8.27;;;;;;;;;;4883448;29;20040;-51
2021/12/13 15:21:03;;;;;;;15.02;8.55;;;;;;;;;;4882864;29;20045;-57
2021/12/13 15:23:33;;;;;;;16.63;9.50;;;;;;;;;;4885580;29;20047;-57
2021/12/13 15:26:09;;;;;;;17.63;9.15;;;;;;;;;;4882537;29;20056;-55
2021/12/13 15:28:48;;;;;;;15.88;9.48;;;;;;;;;;4882343;29;20607;-56